createdAt,value
2023-05-24T00:02:18.100Z,5.97
2023-05-24T00:07:19.913Z,5.10
2023-05-24T00:12:21.504Z,5.47
2023-05-24T00:17:23.109Z,5.75
2023-05-24T00:22:25.135Z,6.38
2023-05-24T00:27:26.782Z,5.82
2023-05-24T00:32:28.316Z,6.15
2023-05-24T00:37:29.904Z,6.15
2023-05-24T00:42:31.518Z,5.03
2023-05-24T00:47:34.066Z,5.32
2023-05-24T00:52:37.032Z,5.68
2023-05-24T00:57:39.098Z,5.30
2023-05-24T01:02:40.793Z,5.75
2023-05-24T01:07:58.221Z,5.45
2023-05-24T01:13:12.405Z,5.40
2023-05-24T01:18:31.476Z,5.85
2023-05-24T01:23:47.527Z,5.93
2023-05-24T01:28:49.929Z,5.90
2023-05-24T01:33:51.495Z,5.90
2023-05-24T01:38:53.309Z,6.90
2023-05-24T01:44:05.686Z,6.05
2023-05-24T01:49:13.504Z,6.22
2023-05-24T01:54:19.672Z,6.22
2023-05-24T01:59:23.361Z,5.93
2023-05-24T02:04:25.433Z,7.35
2023-05-24T02:09:27.138Z,6.95
2023-05-24T02:14:28.720Z,6.00
2023-05-24T02:19:30.371Z,6.05
2023-05-24T02:24:31.905Z,6.35
2023-05-24T02:29:33.455Z,7.32
2023-05-24T02:34:34.977Z,7.07
2023-05-24T02:39:36.475Z,6.65
2023-05-24T02:44:38.009Z,5.88
2023-05-24T02:49:39.571Z,6.07
2023-05-24T02:54:41.145Z,7.00
2023-05-24T02:59:43.509Z,6.40
2023-05-24T03:04:45.077Z,6.25
2023-05-24T03:09:46.618Z,6.72
2023-05-24T03:14:48.175Z,6.30
2023-05-24T03:19:49.788Z,7.10
2023-05-24T03:24:51.357Z,5.95
2023-05-24T03:29:53.006Z,6.10
2023-05-24T03:34:55.566Z,5.95
2023-05-24T03:39:57.072Z,6.25
2023-05-24T03:44:58.606Z,6.35
2023-05-24T03:50:00.171Z,6.80
2023-05-24T03:55:01.712Z,6.85
2023-05-24T04:00:03.670Z,5.22
2023-05-24T04:05:10.280Z,6.10
2023-05-24T04:10:11.938Z,7.38
2023-05-24T04:15:15.221Z,5.70
2023-05-24T04:20:17.964Z,6.07
2023-05-24T04:25:20.144Z,6.43
2023-05-24T04:30:22.150Z,5.75
2023-05-24T04:35:25.579Z,5.60
2023-05-24T04:40:27.267Z,6.00
2023-05-24T04:45:30.355Z,5.88
2023-05-24T04:50:31.953Z,6.10
2023-05-24T04:55:34.029Z,6.25
2023-05-24T05:00:35.616Z,5.40
2023-05-24T05:05:37.612Z,7.28
2023-05-24T05:10:39.191Z,6.13
2023-05-24T05:15:44.044Z,5.50
2023-05-24T05:20:45.858Z,6.40
2023-05-24T05:25:47.728Z,7.28
2023-05-24T05:30:49.328Z,5.72
2023-05-24T05:35:53.427Z,6.35
2023-05-24T05:40:56.351Z,5.10
2023-05-24T05:45:57.985Z,6.05
2023-05-24T05:50:59.582Z,6.30
2023-05-24T05:56:01.197Z,5.28
2023-05-24T06:01:02.777Z,4.75
2023-05-24T06:06:04.451Z,4.70
2023-05-24T06:11:06.045Z,4.78
2023-05-24T06:16:08.589Z,5.15
2023-05-24T06:21:10.757Z,5.00
2023-05-24T06:26:12.496Z,4.97
2023-05-24T06:31:14.039Z,5.00
2023-05-24T06:36:15.663Z,4.63
2023-05-24T06:41:17.335Z,4.95
2023-05-24T06:46:18.938Z,4.60
2023-05-24T06:51:20.445Z,4.85
2023-05-24T06:56:22.044Z,3.90
2023-05-24T07:01:23.714Z,3.88
2023-05-24T07:06:25.344Z,4.75
2023-05-24T07:11:27.527Z,4.28
2023-05-24T07:16:29.096Z,4.25
2023-05-24T07:21:30.786Z,4.65
2023-05-24T07:26:32.453Z,3.88
2023-05-24T07:31:34.791Z,3.75
2023-05-24T07:36:36.941Z,3.60
2023-05-24T07:41:38.503Z,3.65
2023-05-24T07:46:40.166Z,3.53
2023-05-24T07:51:42.223Z,3.30
2023-05-24T07:56:44.461Z,3.55
2023-05-24T08:01:47.672Z,4.13
2023-05-24T08:06:49.271Z,3.88
2023-05-24T08:11:50.796Z,3.92
2023-05-24T08:16:52.431Z,4.07
2023-05-24T08:21:57.513Z,3.83
2023-05-24T08:26:59.356Z,4.10
2023-05-24T08:32:01.109Z,4.35
2023-05-24T08:37:03.326Z,3.63
2023-05-24T08:42:09.473Z,4.65
2023-05-24T08:47:13.205Z,3.72
2023-05-24T08:52:15.691Z,3.90
2023-05-24T08:57:18.025Z,3.90
2023-05-24T09:02:19.839Z,4.40
2023-05-24T09:07:25.409Z,3.88
2023-05-24T09:12:37.285Z,3.47
2023-05-24T09:17:40.703Z,3.40
2023-05-24T09:22:43.876Z,3.72
2023-05-24T09:27:51.124Z,3.30
2023-05-24T09:38:01.352Z,3.25
2023-05-24T09:43:10.120Z,3.35
2023-05-24T09:48:16.532Z,3.63
2023-05-24T09:53:19.323Z,3.53
2023-05-24T09:58:21.867Z,2.95
2023-05-24T10:03:25.376Z,3.70
2023-05-24T10:08:27.896Z,3.03
2023-05-24T10:13:29.671Z,2.60
2023-05-24T10:18:31.546Z,2.83
2023-05-24T10:23:34.079Z,3.55
2023-05-24T10:28:41.082Z,4.57
2023-05-24T10:38:48.592Z,3.53
2023-05-24T10:44:07.897Z,3.70
2023-05-24T10:49:13.783Z,3.58
2023-05-24T10:54:17.860Z,2.95
2023-05-24T10:59:39.227Z,3.38
2023-05-24T11:04:43.483Z,3.20
2023-05-24T11:09:52.531Z,2.90
2023-05-24T11:14:54.066Z,3.00
2023-05-24T11:19:56.786Z,3.28
2023-05-24T11:25:03.397Z,3.38
2023-05-24T11:30:07.360Z,4.07
2023-05-24T11:35:11.415Z,3.08
2023-05-24T11:40:13.747Z,2.90
2023-05-24T11:45:15.751Z,2.45
2023-05-24T11:50:25.336Z,2.72
2023-05-24T11:55:28.358Z,2.65
2023-05-24T12:00:30.073Z,2.70
2023-05-24T12:05:31.940Z,3.10
2023-05-24T12:10:49.263Z,3.01
2023-05-24T12:15:55.607Z,2.63
2023-05-24T12:26:02.815Z,2.60
2023-05-24T12:31:05.532Z,2.28
2023-05-24T12:36:07.847Z,2.90
2023-05-24T12:41:13.419Z,2.88
2023-05-24T12:46:15.600Z,2.78
2023-05-24T12:51:17.150Z,2.85
2023-05-24T12:56:18.690Z,2.42
2023-05-24T13:01:20.320Z,3.08
2023-05-24T13:06:22.517Z,2.90
2023-05-24T13:11:25.287Z,3.17
2023-05-24T13:16:27.001Z,3.15
2023-05-24T13:21:29.391Z,2.60
2023-05-24T13:26:31.073Z,2.75
2023-05-24T13:31:35.981Z,2.50
2023-05-24T13:36:38.187Z,2.90
2023-05-24T13:41:40.707Z,2.20
2023-05-24T13:46:43.337Z,2.22
2023-05-24T13:51:50.643Z,2.00
2023-05-24T14:23:42.552Z,2.87
2023-05-24T14:28:54.439Z,2.13
2023-05-24T14:33:57.795Z,2.45
2023-05-24T14:38:59.397Z,2.30
2023-05-24T14:44:06.944Z,2.85
2023-05-24T14:49:08.802Z,2.80
2023-05-24T14:54:11.366Z,2.72
2023-05-24T14:59:12.926Z,2.38
2023-05-24T15:04:17.258Z,2.60
2023-05-24T15:09:21.812Z,2.50
2023-05-24T15:14:33.593Z,3.17
2023-05-24T15:19:38.518Z,2.90
2023-05-24T15:24:48.884Z,2.80
2023-05-24T15:29:53.946Z,3.00
2023-05-24T15:34:55.592Z,3.17
